createdAt,value
2018-07-22T00:01:20.655Z,14.99
2018-07-22T00:03:49.878Z,15.01
2018-07-22T00:06:19.279Z,15.00
2018-07-22T00:08:48.472Z,14.97
2018-07-22T00:11:17.676Z,14.87
2018-07-22T00:13:47.159Z,14.93
2018-07-22T00:16:16.327Z,14.97
2018-07-22T00:18:46.252Z,14.91
2018-07-22T00:21:15.450Z,14.89
2018-07-22T00:23:45.342Z,14.94
2018-07-22T00:26:14.536Z,14.91
2018-07-22T00:28:43.979Z,14.87
2018-07-22T00:31:13.150Z,14.92
2018-07-22T00:33:42.356Z,14.95
2018-07-22T00:36:11.536Z,14.96
2018-07-22T00:38:40.883Z,15.02
2018-07-22T00:41:10.099Z,14.89
2018-07-22T00:43:39.291Z,14.90
2018-07-22T00:46:08.463Z,14.94
2018-07-22T00:48:37.687Z,14.89
2018-07-22T00:51:07.183Z,14.84
2018-07-22T00:53:36.398Z,14.87
2018-07-22T00:56:05.793Z,14.84
2018-07-22T00:58:34.970Z,14.95
2018-07-22T01:01:04.131Z,14.90
2018-07-22T01:03:33.309Z,14.93
2018-07-22T01:06:02.487Z,14.94
2018-07-22T01:08:31.749Z,14.91
2018-07-22T01:11:00.912Z,14.97
2018-07-22T01:13:30.111Z,15.01
2018-07-22T01:15:59.276Z,14.96
2018-07-22T01:18:28.475Z,15.05
2018-07-22T01:20:57.638Z,15.05
2018-07-22T01:23:26.874Z,14.99
2018-07-22T01:25:56.192Z,15.02
2018-07-22T01:28:25.482Z,15.03
2018-07-22T01:30:54.975Z,14.95
2018-07-22T01:33:24.146Z,14.98
2018-07-22T01:35:53.418Z,15.01
2018-07-22T01:38:22.999Z,14.92
2018-07-22T01:40:52.174Z,14.87
2018-07-22T01:43:21.500Z,14.90
2018-07-22T01:45:51.307Z,14.91
2018-07-22T01:48:20.560Z,14.94
2018-07-22T01:50:49.744Z,15.05
2018-07-22T01:53:18.931Z,15.14
2018-07-22T01:55:48.097Z,15.15
2018-07-22T01:58:17.388Z,15.18
2018-07-22T02:00:46.573Z,15.14
2018-07-22T02:03:15.771Z,15.21
2018-07-22T02:05:44.964Z,15.22
2018-07-22T02:08:14.447Z,15.19
2018-07-22T02:10:44.067Z,15.19
2018-07-22T02:13:13.667Z,15.28
2018-07-22T02:15:42.831Z,15.30
2018-07-22T02:18:12.052Z,15.27
2018-07-22T02:20:41.234Z,15.31
2018-07-22T02:23:10.427Z,15.26
2018-07-22T02:25:39.606Z,15.27
2018-07-22T02:28:09.496Z,15.27
2018-07-22T02:30:38.704Z,15.32
2018-07-22T02:33:07.891Z,15.37
2018-07-22T02:35:37.303Z,15.47
2018-07-22T02:38:06.507Z,15.49
2018-07-22T02:40:35.699Z,15.46
2018-07-22T02:43:04.930Z,15.50
2018-07-22T02:45:34.131Z,15.41
2018-07-22T02:48:03.304Z,15.46
2018-07-22T02:50:32.490Z,15.46
2018-07-22T02:53:01.911Z,15.49
2018-07-22T02:55:31.138Z,15.55
2018-07-22T02:58:00.454Z,15.64
2018-07-22T03:00:29.631Z,15.65
2018-07-22T03:02:59.009Z,15.69
2018-07-22T03:05:28.407Z,15.73
2018-07-22T03:07:57.719Z,15.79
2018-07-22T03:10:26.913Z,15.79
2018-07-22T03:12:56.104Z,15.82
2018-07-22T03:15:25.407Z,15.82
2018-07-22T03:17:55.104Z,15.82
2018-07-22T03:20:24.272Z,15.78
2018-07-22T03:22:53.972Z,15.78
2018-07-22T03:25:23.403Z,15.77
2018-07-22T03:27:52.977Z,15.79
2018-07-22T03:30:22.539Z,15.83
2018-07-22T03:32:51.963Z,15.83
2018-07-22T03:35:21.153Z,15.85
2018-07-22T03:37:50.310Z,15.91
2018-07-22T03:40:19.519Z,15.93
2018-07-22T03:42:48.706Z,15.91
2018-07-22T03:45:17.910Z,15.92
2018-07-22T03:47:47.067Z,15.96
2018-07-22T03:50:16.234Z,15.95
2018-07-22T03:52:45.446Z,15.96
2018-07-22T03:55:14.640Z,15.99
2018-07-22T03:57:43.807Z,16.05
2018-07-22T04:00:12.991Z,16.05
2018-07-22T04:02:42.157Z,16.05
2018-07-22T04:05:11.382Z,16.03
2018-07-22T04:07:40.547Z,16.07
2018-07-22T04:10:09.730Z,16.19
2018-07-22T04:12:38.918Z,16.36
2018-07-22T04:15:08.220Z,16.49
2018-07-22T04:17:37.531Z,16.55
2018-07-22T04:20:06.968Z,16.65
2018-07-22T04:22:36.265Z,16.69
2018-07-22T04:25:05.479Z,16.71
2018-07-22T04:27:34.654Z,16.72
2018-07-22T04:30:03.926Z,16.76
2018-07-22T04:32:33.139Z,16.84
2018-07-22T04:35:02.487Z,16.89
2018-07-22T04:37:31.859Z,16.85
2018-07-22T04:40:01.023Z,16.85
2018-07-22T04:42:30.320Z,16.82
2018-07-22T04:44:59.515Z,16.70
2018-07-22T04:47:29.414Z,16.70
2018-07-22T04:49:58.612Z,16.71
2018-07-22T04:52:27.779Z,16.76
2018-07-22T04:54:57.987Z,16.83
2018-07-22T04:57:27.147Z,16.89
2018-07-22T04:59:56.333Z,16.94
2018-07-22T05:02:25.586Z,16.98
2018-07-22T05:04:54.786Z,17.07
2018-07-22T05:07:23.975Z,17.09
2018-07-22T05:09:53.177Z,17.13
2018-07-22T05:12:22.367Z,17.24
2018-07-22T05:14:51.546Z,17.26
2018-07-22T05:17:20.730Z,17.33
2018-07-22T05:19:49.922Z,17.47
2018-07-22T05:22:19.103Z,17.51
2018-07-22T05:24:48.286Z,17.62
2018-07-22T05:27:17.475Z,17.66
2018-07-22T05:29:46.678Z,17.67
2018-07-22T05:32:15.994Z,17.64
2018-07-22T05:34:45.459Z,17.77
2018-07-22T05:37:14.815Z,17.90
2018-07-22T05:39:44.062Z,17.92
2018-07-22T05:42:13.595Z,18.11
2018-07-22T05:44:42.687Z,18.28
2018-07-22T05:47:11.856Z,18.21
2018-07-22T05:49:41.047Z,18.45
2018-07-22T05:52:10.259Z,18.33
2018-07-22T05:54:40.800Z,18.37
2018-07-22T05:57:11.019Z,18.46
2018-07-22T05:59:40.239Z,18.48
2018-07-22T06:02:09.535Z,18.42
2018-07-22T06:04:38.867Z,18.54
2018-07-22T06:07:08.071Z,18.51
2018-07-22T06:09:37.271Z,18.47
2018-07-22T06:12:06.597Z,18.39
2018-07-22T06:14:35.715Z,18.27
2018-07-22T06:17:05.196Z,18.56
2018-07-22T06:19:34.424Z,18.59
2018-07-22T06:22:03.623Z,18.45
2018-07-22T06:24:32.811Z,18.57
2018-07-22T06:27:01.987Z,18.81
2018-07-22T06:29:31.394Z,18.73
2018-07-22T06:32:00.587Z,18.93
2018-07-22T06:34:29.811Z,19.20
2018-07-22T06:36:59.005Z,19.29
2018-07-22T06:39:30.229Z,19.76
2018-07-22T06:41:59.459Z,20.01
2018-07-22T06:44:28.759Z,20.31
2018-07-22T06:46:57.927Z,20.67
2018-07-22T06:49:27.509Z,20.93
2018-07-22T06:51:57.812Z,20.99
2018-07-22T06:54:27.930Z,20.96
2018-07-22T06:56:57.173Z,20.96
2018-07-22T06:59:26.347Z,20.88
2018-07-22T07:01:55.625Z,20.82
2018-07-22T07:04:24.860Z,21.00
2018-07-22T07:06:54.174Z,20.86
2018-07-22T07:09:23.654Z,20.68
2018-07-22T07:11:52.846Z,20.29
2018-07-22T07:14:22.052Z,20.17
2018-07-22T07:16:51.595Z,20.20
2018-07-22T07:19:20.766Z,20.01
2018-07-22T07:21:50.135Z,19.71
2018-07-22T07:24:19.334Z,19.51
2018-07-22T07:26:48.593Z,19.52
2018-07-22T07:29:17.715Z,19.27
2018-07-22T07:31:47.136Z,19.34
2018-07-22T07:34:16.383Z,19.23
2018-07-22T07:36:45.559Z,19.03
2018-07-22T07:39:14.735Z,18.99
2018-07-22T07:41:44.016Z,18.77
2018-07-22T07:44:13.612Z,18.72
2018-07-22T07:46:43.139Z,18.67
2018-07-22T07:49:12.311Z,18.66
2018-07-22T07:51:41.487Z,18.50
2018-07-22T07:54:10.684Z,18.46
2018-07-22T07:56:39.895Z,18.52
2018-07-22T07:59:09.075Z,18.43
2018-07-22T08:01:38.306Z,18.25
2018-07-22T08:04:08.156Z,18.20
2018-07-22T08:06:37.358Z,18.07
2018-07-22T08:09:07.727Z,17.98
2018-07-22T08:11:37.258Z,17.97
2018-07-22T08:14:06.434Z,17.94
2018-07-22T08:16:36.203Z,18.00
2018-07-22T08:19:05.422Z,18.13
2018-07-22T08:21:34.639Z,18.30
2018-07-22T08:24:03.801Z,18.27
2018-07-22T08:26:32.972Z,18.42
2018-07-22T08:29:20.556Z,18.30
2018-07-22T08:31:51.335Z,18.32
2018-07-22T08:34:20.731Z,18.31
2018-07-22T08:36:50.147Z,18.42
2018-07-22T08:39:20.667Z,18.48
2018-07-22T08:41:50.635Z,18.36
2018-07-22T08:44:19.799Z,18.51
2018-07-22T08:46:48.999Z,18.55
2018-07-22T08:49:18.548Z,18.20
2018-07-22T08:51:48.055Z,18.21
2018-07-22T08:54:17.267Z,18.28
2018-07-22T08:56:46.459Z,18.19
2018-07-22T08:59:15.685Z,18.39
2018-07-22T09:01:44.894Z,18.42
2018-07-22T09:04:14.066Z,18.40
2018-07-22T09:06:47.254Z,18.53
2018-07-22T09:09:16.483Z,18.50
2018-07-22T09:11:48.590Z,18.81
2018-07-22T09:14:17.965Z,18.74
2018-07-22T09:16:49.226Z,18.93
2018-07-22T09:19:19.487Z,18.86
2018-07-22T09:21:51.752Z,19.08
2018-07-22T09:24:22.135Z,19.06
2018-07-22T09:26:52.698Z,19.22
2018-07-22T09:29:23.681Z,19.37
2018-07-22T09:31:54.853Z,19.68
2018-07-22T09:34:25.291Z,19.68
2018-07-22T09:36:55.083Z,19.49
2018-07-22T09:39:24.291Z,19.74
2018-07-22T09:41:54.749Z,19.83
2018-07-22T09:44:23.881Z,19.85
2018-07-22T09:46:53.219Z,20.55
2018-07-22T09:49:22.605Z,20.41
2018-07-22T09:51:51.804Z,20.81
2018-07-22T09:54:21.566Z,21.06
2018-07-22T09:56:50.775Z,21.64
2018-07-22T09:59:20.344Z,21.46
2018-07-22T10:01:49.771Z,21.87
2018-07-22T10:04:19.150Z,22.00
2018-07-22T10:06:48.325Z,22.11
2018-07-22T10:09:17.560Z,22.26
2018-07-22T10:11:46.747Z,22.11
2018-07-22T10:14:16.325Z,22.49
2018-07-22T10:16:45.506Z,22.58
2018-07-22T10:19:14.706Z,23.13
2018-07-22T10:21:44.227Z,23.46
2018-07-22T10:24:13.415Z,24.26
2018-07-22T10:26:42.623Z,24.50
2018-07-22T10:29:11.790Z,26.06
2018-07-22T10:31:41.003Z,27.18
2018-07-22T10:34:10.207Z,27.92
2018-07-22T10:36:39.447Z,28.22
2018-07-22T10:39:10.451Z,28.08
2018-07-22T10:41:39.763Z,28.58
2018-07-22T10:44:09.050Z,28.85
2018-07-22T10:46:38.363Z,30.13
2018-07-22T10:49:07.787Z,31.17
2018-07-22T10:51:40.089Z,31.19
2018-07-22T10:54:09.364Z,31.07
2018-07-22T10:56:38.539Z,32.01
2018-07-22T10:59:07.707Z,30.76
2018-07-22T11:01:37.040Z,32.97
2018-07-22T11:04:06.414Z,34.31
2018-07-22T11:06:36.090Z,34.83
2018-07-22T11:09:07.674Z,34.67
2018-07-22T11:11:36.851Z,34.62
2018-07-22T11:14:06.116Z,34.84
2018-07-22T11:16:35.321Z,36.71
2018-07-22T11:19:04.552Z,33.30
2018-07-22T11:21:33.808Z,32.44
2018-07-22T11:24:02.978Z,32.49
2018-07-22T11:26:32.423Z,31.57
2018-07-22T11:29:01.617Z,31.95
2018-07-22T11:31:30.923Z,32.24
2018-07-22T11:34:01.304Z,32.96
2018-07-22T11:36:30.478Z,34.11
2018-07-22T11:38:59.655Z,34.62
2018-07-22T11:41:28.827Z,32.95
2018-07-22T11:43:58.087Z,32.86
2018-07-22T11:46:27.223Z,32.67
2018-07-22T11:48:57.234Z,34.31
2018-07-22T11:51:26.414Z,35.06
2018-07-22T11:53:55.610Z,35.17
2018-07-22T11:56:24.965Z,32.72
2018-07-22T11:58:54.503Z,34.58
2018-07-22T12:01:24.020Z,36.44
2018-07-22T12:03:53.619Z,36.25
2018-07-22T12:06:22.815Z,36.51
2018-07-22T12:08:52.020Z,37.02
2018-07-22T12:11:21.319Z,35.90
2018-07-22T12:13:50.512Z,35.70
2018-07-22T12:16:20.039Z,34.64
2018-07-22T12:18:49.262Z,35.59
2018-07-22T12:21:18.486Z,35.34
2018-07-22T12:23:47.948Z,35.79
2018-07-22T12:26:17.119Z,35.29
2018-07-22T12:28:46.488Z,35.05
2018-07-22T12:31:15.771Z,36.14
2018-07-22T12:33:44.963Z,36.38
2018-07-22T12:36:14.447Z,36.73
2018-07-22T12:38:43.852Z,35.48
2018-07-22T12:41:13.010Z,35.34
2018-07-22T12:43:42.275Z,36.27
2018-07-22T12:46:11.476Z,35.73
2018-07-22T12:48:40.647Z,35.75
2018-07-22T12:51:09.872Z,34.04
2018-07-22T12:53:39.083Z,35.31
2018-07-22T12:56:08.210Z,36.20
2018-07-22T12:58:37.643Z,36.25
2018-07-22T13:01:06.995Z,36.00
2018-07-22T13:03:36.487Z,36.94
2018-07-22T13:06:05.671Z,35.69
2018-07-22T13:08:34.892Z,34.95
2018-07-22T13:11:04.034Z,35.75
2018-07-22T13:13:33.227Z,35.73
2018-07-22T13:16:02.462Z,36.74
2018-07-22T13:18:31.999Z,35.81
2018-07-22T13:21:01.152Z,35.16
2018-07-22T13:23:30.335Z,33.46
2018-07-22T13:25:59.660Z,34.10
2018-07-22T13:28:29.159Z,34.40
2018-07-22T13:30:58.350Z,36.39
2018-07-22T13:33:27.554Z,35.96
2018-07-22T13:35:57.102Z,34.56
2018-07-22T13:38:26.535Z,34.82
2018-07-22T13:40:56.474Z,33.58
2018-07-22T13:43:25.640Z,34.37
2018-07-22T13:45:54.818Z,34.41
2018-07-22T13:48:24.023Z,34.92
2018-07-22T13:50:53.195Z,35.01
2018-07-22T13:53:22.403Z,35.91
2018-07-22T13:55:51.579Z,37.10
2018-07-22T13:58:20.782Z,36.53
2018-07-22T14:00:49.986Z,35.65
2018-07-22T14:03:20.462Z,35.84
2018-07-22T14:05:49.639Z,37.46
2018-07-22T14:08:18.886Z,36.25
2018-07-22T14:10:48.051Z,33.61
2018-07-22T14:13:17.533Z,34.98
2018-07-22T14:15:46.714Z,35.29
2018-07-22T14:18:16.045Z,34.94
2018-07-22T14:20:45.192Z,34.41
2018-07-22T14:23:14.373Z,34.60
2018-07-22T14:25:44.049Z,34.62
2018-07-22T14:28:13.276Z,35.36
2018-07-22T14:30:42.375Z,34.97
2018-07-22T14:33:11.559Z,34.17
2018-07-22T14:35:40.751Z,33.37
2018-07-22T14:38:09.942Z,31.12
2018-07-22T14:40:39.282Z,30.61
2018-07-22T14:43:08.742Z,29.78
2018-07-22T14:45:37.903Z,29.36
2018-07-22T14:48:07.588Z,29.56
2018-07-22T14:50:36.730Z,30.21
2018-07-22T14:53:06.696Z,30.68
2018-07-22T14:55:35.856Z,31.10
2018-07-22T14:58:05.099Z,31.72
2018-07-22T15:00:34.271Z,32.73
2018-07-22T15:03:03.765Z,31.21
2018-07-22T15:05:33.043Z,30.62
2018-07-22T15:08:02.167Z,29.75
2018-07-22T15:10:31.366Z,29.58
2018-07-22T15:13:00.556Z,30.16
2018-07-22T15:15:30.096Z,30.73
2018-07-22T15:17:59.283Z,30.58
2018-07-22T15:20:28.600Z,29.79
2018-07-22T15:22:58.114Z,29.36
2018-07-22T15:25:27.291Z,29.51
2018-07-22T15:27:56.451Z,28.86
2018-07-22T15:30:25.674Z,28.81
2018-07-22T15:32:54.824Z,28.91
2018-07-22T15:35:25.118Z,29.25
2018-07-22T15:37:54.293Z,29.32
2018-07-22T15:40:23.507Z,29.21
2018-07-22T15:42:52.696Z,29.41
2018-07-22T15:45:23.702Z,29.51
2018-07-22T15:47:53.422Z,29.21
2018-07-22T15:50:23.207Z,29.47
2018-07-22T15:52:52.898Z,29.51
2018-07-22T15:55:22.200Z,29.37
2018-07-22T15:57:51.254Z,29.32
2018-07-22T16:00:20.459Z,29.59
2018-07-22T16:02:49.658Z,29.35
2018-07-22T16:05:19.150Z,29.50
2018-07-22T16:07:49.043Z,29.48
2018-07-22T16:10:18.460Z,29.24
2018-07-22T16:12:47.649Z,28.71
2018-07-22T16:15:16.883Z,28.20
2018-07-22T16:17:46.161Z,28.18
2018-07-22T16:20:15.455Z,27.99
2018-07-22T16:22:46.333Z,27.77
2018-07-22T16:25:16.015Z,27.60
2018-07-22T16:27:45.486Z,27.55
2018-07-22T16:30:14.707Z,27.26
2018-07-22T16:32:44.811Z,27.31
2018-07-22T16:35:14.142Z,26.99
2018-07-22T16:37:43.348Z,26.91
2018-07-22T16:40:12.759Z,26.76
2018-07-22T16:42:41.939Z,26.84
2018-07-22T16:45:11.861Z,26.81
2018-07-22T16:47:41.044Z,26.82
2018-07-22T16:50:10.415Z,26.94
2018-07-22T16:52:39.583Z,26.76
2018-07-22T16:55:08.802Z,26.98
2018-07-22T16:57:37.951Z,27.01
2018-07-22T17:00:07.371Z,27.17
2018-07-22T17:02:36.586Z,27.06
2018-07-22T17:05:05.766Z,27.28
2018-07-22T17:07:35.071Z,27.28
2018-07-22T17:10:04.304Z,27.22
2018-07-22T17:12:33.455Z,27.04
2018-07-22T17:15:02.649Z,26.79
2018-07-22T17:17:31.827Z,26.60
2018-07-22T17:20:01.011Z,26.55
2018-07-22T17:22:30.211Z,26.49
2018-07-22T17:24:59.378Z,26.41
2018-07-22T17:27:28.794Z,26.33
2018-07-22T17:29:58.252Z,26.19
2018-07-22T17:32:27.431Z,26.15
2018-07-22T17:34:56.611Z,26.00
2018-07-22T17:37:26.641Z,25.99
2018-07-22T17:39:58.794Z,26.01
2018-07-22T17:42:29.499Z,26.00
2018-07-22T17:44:58.758Z,25.82
2018-07-22T17:47:28.896Z,25.78
2018-07-22T17:49:58.158Z,25.72
2018-07-22T17:52:27.895Z,25.71
2018-07-22T17:54:57.067Z,25.76
2018-07-22T17:57:26.252Z,25.68
2018-07-22T17:59:55.431Z,25.69
2018-07-22T18:02:24.598Z,25.82
2018-07-22T18:04:53.840Z,25.80
2018-07-22T18:07:23.079Z,25.77
2018-07-22T18:09:53.966Z,25.65
2018-07-22T18:12:23.824Z,25.69
2018-07-22T18:14:54.068Z,25.57
2018-07-22T18:17:24.082Z,25.49
2018-07-22T18:19:54.235Z,25.36
2018-07-22T18:22:24.240Z,25.26
2018-07-22T18:24:54.376Z,25.17
2018-07-22T18:27:24.715Z,25.09
2018-07-22T18:29:55.079Z,24.89
2018-07-22T18:32:25.827Z,24.70
2018-07-22T18:34:56.049Z,24.49
2018-07-22T18:37:25.221Z,24.19
2018-07-22T18:39:54.390Z,24.02
2018-07-22T18:42:23.696Z,23.74
2018-07-22T18:44:52.828Z,23.45
2018-07-22T18:47:22.011Z,23.22
2018-07-22T18:49:51.237Z,23.05
2018-07-22T18:52:20.363Z,22.93
2018-07-22T18:54:49.721Z,22.65
2018-07-22T18:57:18.915Z,22.39
2018-07-22T18:59:48.205Z,22.32
2018-07-22T19:02:17.906Z,22.13
2018-07-22T19:04:47.105Z,22.00
2018-07-22T19:07:16.279Z,21.85
2018-07-22T19:09:45.654Z,21.51
2018-07-22T19:12:14.959Z,21.24
2018-07-22T19:14:44.150Z,21.02
2018-07-22T19:17:13.699Z,20.93
2018-07-22T19:19:43.533Z,20.83
2018-07-22T19:22:12.619Z,20.69
2018-07-22T19:24:41.942Z,20.36
2018-07-22T19:27:11.131Z,20.14
2018-07-22T19:29:40.801Z,20.03
2018-07-22T19:32:10.309Z,20.10
2018-07-22T19:34:39.474Z,19.83
2018-07-22T19:37:08.672Z,19.80
2018-07-22T19:39:37.870Z,19.72
2018-07-22T19:42:07.620Z,19.48
2018-07-22T19:44:37.514Z,19.39
2018-07-22T19:47:06.695Z,19.45
2018-07-22T19:49:35.850Z,19.40
2018-07-22T19:52:05.041Z,19.33
2018-07-22T19:54:34.210Z,19.34
2018-07-22T19:57:03.403Z,19.37
2018-07-22T19:59:32.603Z,19.30
2018-07-22T20:02:01.806Z,19.17
2018-07-22T20:04:31.290Z,19.18
2018-07-22T20:07:00.759Z,19.09
2018-07-22T20:09:29.947Z,19.13
2018-07-22T20:11:59.562Z,19.03
2018-07-22T20:14:28.731Z,18.94
2018-07-22T20:16:59.360Z,18.95
2018-07-22T20:19:28.580Z,18.92
2018-07-22T20:22:01.933Z,18.86
2018-07-22T20:24:31.076Z,18.92
2018-07-22T20:27:00.259Z,18.75
2018-07-22T20:29:29.434Z,18.77
2018-07-22T20:31:58.603Z,18.67
2018-07-22T20:34:27.784Z,18.69
2018-07-22T20:36:57.206Z,18.62
2018-07-22T20:39:26.374Z,18.63
2018-07-22T20:41:55.559Z,18.49
2018-07-22T20:44:24.923Z,18.45
2018-07-22T20:46:56.856Z,18.52
2018-07-22T20:49:26.016Z,18.40
2018-07-22T20:51:55.443Z,18.38
2018-07-22T20:54:26.537Z,18.30
2018-07-22T20:56:55.790Z,18.27
2018-07-22T20:59:24.915Z,18.20
2018-07-22T21:01:54.099Z,18.20
2018-07-22T21:04:23.382Z,18.18
2018-07-22T21:06:52.571Z,18.17
2018-07-22T21:09:21.752Z,18.11
2018-07-22T21:14:03.113Z,18.01
2018-07-22T21:16:32.508Z,17.87
2018-07-22T21:19:01.679Z,17.82
2018-07-22T21:21:30.871Z,17.68
2018-07-22T21:24:00.016Z,17.61
2018-07-22T21:26:29.202Z,17.56
2018-07-22T21:28:58.363Z,17.44
2018-07-22T21:31:28.007Z,17.42
2018-07-22T21:33:57.172Z,17.43
2018-07-22T21:36:26.355Z,17.46
2018-07-22T21:38:55.979Z,17.52
2018-07-22T21:41:25.160Z,17.43
2018-07-22T21:43:54.307Z,17.36
2018-07-22T21:46:23.499Z,17.28
2018-07-22T21:48:52.662Z,17.26
2018-07-22T21:51:21.843Z,17.20
2018-07-22T21:53:51.035Z,17.13
2018-07-22T21:56:20.694Z,17.09
2018-07-22T21:58:49.831Z,17.08
2018-07-22T22:01:19.100Z,17.03
2018-07-22T22:03:48.263Z,17.01
2018-07-22T22:06:18.274Z,17.00
2018-07-22T22:08:47.440Z,16.84
2018-07-22T22:11:16.639Z,16.83
2018-07-22T22:13:45.803Z,16.78
2018-07-22T22:16:14.944Z,16.75
2018-07-22T22:18:44.465Z,16.76
2018-07-22T22:21:13.647Z,16.72
2018-07-22T22:23:42.871Z,16.72
2018-07-22T22:26:12.598Z,16.66
2018-07-22T22:28:41.893Z,16.59
2018-07-22T22:31:11.267Z,16.69
2018-07-22T22:33:40.491Z,16.66
2018-07-22T22:36:09.659Z,16.67
2018-07-22T22:38:38.839Z,16.66
2018-07-22T22:41:08.032Z,16.57
2018-07-22T22:43:37.223Z,16.43
2018-07-22T22:46:06.497Z,16.46
2018-07-22T22:48:35.671Z,16.48
2018-07-22T22:51:04.831Z,16.47
2018-07-22T22:53:34.024Z,16.43
2018-07-22T22:56:03.207Z,16.35
2018-07-22T22:58:43.923Z,16.41
2018-07-22T23:01:13.710Z,16.36
2018-07-22T23:03:42.870Z,16.40
2018-07-22T23:06:12.391Z,16.40
2018-07-22T23:08:41.579Z,16.31
2018-07-22T23:11:11.465Z,16.28
2018-07-22T23:13:40.618Z,16.28
2018-07-22T23:16:09.838Z,16.22
2018-07-22T23:18:39.027Z,16.19
2018-07-22T23:21:08.366Z,16.12
2018-07-22T23:23:37.564Z,16.12
2018-07-22T23:26:06.868Z,16.13
2018-07-22T23:28:36.074Z,16.09
2018-07-22T23:31:05.279Z,16.03
2018-07-22T23:33:34.483Z,16.05
2018-07-22T23:36:03.847Z,16.08
2018-07-22T23:38:33.350Z,15.97
2018-07-22T23:41:03.680Z,15.97
2018-07-22T23:43:32.851Z,16.07
2018-07-22T23:46:02.443Z,15.97
2018-07-22T23:48:31.855Z,15.86
2018-07-22T23:51:01.047Z,15.85
2018-07-22T23:53:30.626Z,15.84
2018-07-22T23:55:59.812Z,15.71
2018-07-22T23:58:30.224Z,15.72
